createdAt,value
2023-05-19T00:01:13.218Z,73.52
2023-05-19T00:03:49.131Z,73.59
2023-05-19T00:06:15.778Z,73.30
2023-05-19T00:08:42.398Z,73.55
2023-05-19T00:11:09.330Z,73.83
2023-05-19T00:13:35.936Z,74.38
2023-05-19T00:16:02.707Z,74.80
2023-05-19T00:18:29.317Z,74.50
2023-05-19T00:20:55.874Z,75.05
2023-05-19T00:23:22.410Z,75.16
2023-05-19T00:25:49.060Z,74.55
2023-05-19T00:28:15.602Z,75.05
2023-05-19T00:30:42.197Z,75.15
2023-05-19T00:33:09.043Z,75.24
2023-05-19T00:35:35.630Z,75.33
2023-05-19T00:38:02.305Z,75.71
2023-05-19T00:40:29.318Z,75.75
2023-05-19T00:42:55.889Z,75.25
2023-05-19T00:45:22.479Z,75.50
2023-05-19T00:47:49.118Z,75.28
2023-05-19T00:50:15.732Z,75.67
2023-05-19T00:52:42.328Z,75.81
2023-05-19T00:55:09.053Z,76.02
2023-05-19T00:57:35.732Z,76.11
2023-05-19T01:00:02.458Z,76.20
2023-05-19T01:02:29.115Z,76.82
2023-05-19T01:04:57.112Z,76.21
2023-05-19T01:07:23.708Z,76.29
2023-05-19T01:09:50.289Z,76.87
2023-05-19T01:12:16.827Z,76.96
2023-05-19T01:14:43.422Z,76.27
2023-05-19T01:17:13.029Z,76.76
2023-05-19T01:20:02.836Z,76.65
2023-05-19T01:22:36.749Z,76.81
2023-05-19T01:25:21.568Z,77.27
2023-05-19T01:28:11.944Z,76.74
2023-05-19T01:30:44.652Z,76.76
2023-05-19T01:33:12.920Z,77.34
2023-05-19T01:35:39.777Z,76.79
2023-05-19T01:38:08.810Z,77.22
2023-05-19T01:40:35.573Z,77.22
2023-05-19T01:43:02.142Z,76.84
2023-05-19T01:45:28.957Z,77.54
2023-05-19T01:47:56.933Z,77.49
2023-05-19T01:50:23.582Z,77.57
2023-05-19T01:52:50.304Z,77.48
2023-05-19T01:55:16.928Z,76.92
2023-05-19T01:57:43.449Z,77.18
2023-05-19T02:00:09.987Z,77.93
2023-05-19T02:03:02.582Z,77.12
2023-05-19T02:05:36.430Z,78.03
2023-05-19T02:08:13.471Z,78.07
2023-05-19T02:10:41.228Z,78.12
2023-05-19T02:13:07.844Z,78.52
2023-05-19T02:15:40.301Z,77.92
2023-05-19T02:18:06.973Z,78.63
2023-05-19T02:20:33.778Z,78.49
2023-05-19T02:23:00.670Z,78.14
2023-05-19T02:25:27.265Z,78.14
2023-05-19T02:27:54.624Z,78.93
2023-05-19T02:30:21.245Z,78.27
2023-05-19T02:32:47.839Z,78.89
2023-05-19T02:35:14.477Z,78.74
2023-05-19T02:37:41.081Z,79.06
2023-05-19T02:40:08.337Z,79.32
2023-05-19T02:42:34.964Z,79.30
2023-05-19T02:45:01.565Z,78.78
2023-05-19T02:47:28.234Z,79.50
2023-05-19T02:49:54.867Z,79.19
2023-05-19T02:52:21.454Z,79.12
2023-05-19T02:54:48.047Z,79.41
2023-05-19T02:57:14.667Z,79.30
2023-05-19T02:59:41.301Z,79.34
2023-05-19T03:02:07.923Z,79.49
2023-05-19T03:04:34.618Z,79.12
2023-05-19T03:07:01.126Z,79.98
2023-05-19T03:09:27.744Z,79.65
2023-05-19T03:11:54.344Z,79.88
2023-05-19T03:14:21.048Z,79.66
2023-05-19T03:16:47.843Z,79.98
2023-05-19T03:19:14.556Z,80.28
2023-05-19T03:21:41.154Z,79.87
2023-05-19T03:24:07.776Z,80.56
2023-05-19T03:26:34.616Z,80.18
2023-05-19T03:29:01.271Z,80.30
2023-05-19T03:31:27.864Z,79.65
2023-05-19T03:33:54.429Z,79.70
2023-05-19T03:36:21.001Z,80.34
2023-05-19T03:38:47.583Z,80.42
2023-05-19T03:41:14.185Z,79.77
2023-05-19T03:43:40.768Z,80.10
2023-05-19T03:46:07.384Z,80.58
2023-05-19T03:48:34.024Z,80.17
2023-05-19T03:51:00.616Z,80.77
2023-05-19T03:53:27.254Z,79.90
2023-05-19T03:55:53.783Z,80.60
2023-05-19T03:58:20.341Z,80.02
2023-05-19T04:00:46.899Z,80.25
2023-05-19T04:03:13.641Z,80.24
2023-05-19T04:05:40.368Z,80.01
2023-05-19T04:08:06.927Z,80.65
2023-05-19T04:10:33.649Z,80.44
2023-05-19T04:13:00.380Z,80.73
2023-05-19T04:15:26.963Z,80.22
2023-05-19T04:17:53.525Z,80.64
2023-05-19T04:20:20.146Z,80.22
2023-05-19T04:22:46.734Z,80.70
2023-05-19T04:25:13.278Z,80.33
2023-05-19T04:27:39.873Z,80.31
2023-05-19T04:30:06.913Z,80.52
2023-05-19T04:32:33.586Z,80.01
2023-05-19T04:35:00.241Z,80.59
2023-05-19T04:37:26.917Z,80.58
2023-05-19T04:39:53.530Z,80.67
2023-05-19T04:42:20.301Z,81.03
2023-05-19T04:44:47.289Z,81.03
2023-05-19T04:47:13.874Z,80.84
2023-05-19T04:49:40.461Z,81.26
2023-05-19T04:52:07.749Z,80.46
2023-05-19T04:54:37.990Z,80.75
2023-05-19T04:57:04.787Z,80.73
2023-05-19T04:59:31.430Z,80.25
2023-05-19T05:01:58.116Z,80.94
2023-05-19T05:04:24.752Z,80.25
2023-05-19T05:06:51.289Z,80.43
2023-05-19T05:09:17.895Z,80.61
2023-05-19T05:11:44.791Z,80.43
2023-05-19T05:14:11.599Z,80.42
2023-05-19T05:16:38.418Z,80.49
2023-05-19T05:19:05.226Z,80.52
2023-05-19T05:21:31.998Z,80.25
2023-05-19T05:23:58.758Z,79.34
2023-05-19T05:26:25.320Z,79.47
2023-05-19T05:28:51.924Z,79.63
2023-05-19T05:31:18.565Z,79.38
2023-05-19T05:33:45.172Z,79.05
2023-05-19T05:36:11.764Z,78.34
2023-05-19T05:38:38.413Z,78.54
2023-05-19T05:41:05.037Z,78.17
2023-05-19T05:43:31.636Z,77.73
2023-05-19T05:45:58.251Z,77.61
2023-05-19T05:48:25.192Z,77.77
2023-05-19T05:50:52.787Z,77.93
2023-05-19T05:53:20.373Z,78.11
2023-05-19T05:55:47.786Z,77.60
2023-05-19T05:58:14.456Z,76.99
2023-05-19T06:00:41.771Z,76.83
2023-05-19T06:03:08.496Z,76.15
2023-05-19T06:05:35.652Z,76.25
2023-05-19T06:08:02.336Z,75.48
2023-05-19T06:10:29.066Z,74.51
2023-05-19T06:12:55.713Z,74.02
2023-05-19T06:15:22.542Z,74.49
2023-05-19T06:17:49.157Z,73.60
2023-05-19T06:20:15.803Z,72.76
2023-05-19T06:22:42.381Z,71.92
2023-05-19T06:25:09.194Z,72.47
2023-05-19T06:27:35.998Z,72.45
2023-05-19T06:30:02.782Z,71.42
2023-05-19T06:32:29.400Z,71.25
2023-05-19T06:34:56.088Z,71.43
2023-05-19T06:37:22.793Z,71.48
2023-05-19T06:39:55.268Z,71.83
2023-05-19T06:42:21.888Z,71.49
2023-05-19T06:44:49.776Z,71.81
2023-05-19T06:47:16.954Z,70.83
2023-05-19T06:49:44.534Z,70.94
2023-05-19T06:52:11.573Z,71.33
2023-05-19T06:54:38.280Z,69.46
2023-05-19T06:57:05.106Z,67.78
2023-05-19T06:59:31.735Z,67.61
2023-05-19T07:01:58.392Z,67.55
2023-05-19T07:04:25.079Z,67.82
2023-05-19T07:06:51.719Z,67.97
2023-05-19T07:09:18.328Z,67.94
2023-05-19T07:11:45.296Z,67.31
2023-05-19T07:14:11.929Z,65.82
2023-05-19T07:16:38.567Z,66.25
2023-05-19T07:19:05.241Z,66.60
2023-05-19T07:21:31.833Z,66.18
2023-05-19T07:23:58.351Z,65.85
2023-05-19T07:26:25.020Z,65.45
2023-05-19T07:28:51.678Z,65.01
2023-05-19T07:31:18.294Z,65.66
2023-05-19T07:33:44.932Z,66.10
2023-05-19T07:36:11.520Z,66.15
2023-05-19T07:38:38.174Z,66.13
2023-05-19T07:41:04.902Z,65.27
2023-05-19T07:43:31.533Z,65.95
2023-05-19T07:45:58.290Z,65.04
2023-05-19T07:48:24.859Z,63.76
2023-05-19T07:50:51.955Z,62.78
2023-05-19T07:53:19.360Z,62.36
2023-05-19T07:55:46.419Z,62.79
2023-05-19T07:58:12.989Z,61.04
2023-05-19T08:00:39.604Z,60.32
2023-05-19T08:03:06.336Z,60.43
2023-05-19T08:05:34.046Z,59.03
2023-05-19T08:08:00.656Z,59.09
2023-05-19T08:10:27.289Z,59.20
2023-05-19T08:12:53.897Z,59.00
2023-05-19T08:15:20.730Z,59.01
2023-05-19T08:17:47.476Z,58.01
2023-05-19T08:20:14.089Z,58.41
2023-05-19T08:22:40.727Z,57.68
2023-05-19T08:25:07.460Z,57.70
2023-05-19T08:27:34.051Z,56.70
2023-05-19T08:30:00.712Z,57.17
2023-05-19T08:32:27.340Z,56.95
2023-05-19T08:34:53.940Z,56.64
2023-05-19T08:37:20.483Z,56.54
2023-05-19T08:39:47.053Z,55.59
2023-05-19T08:42:13.599Z,56.46
2023-05-19T08:44:40.213Z,57.03
2023-05-19T08:47:06.771Z,56.58
2023-05-19T08:49:35.359Z,56.26
2023-05-19T08:52:32.178Z,53.09
2023-05-19T08:55:09.104Z,52.67
2023-05-19T08:57:36.332Z,52.26
2023-05-19T09:00:03.812Z,52.63
2023-05-19T09:02:30.424Z,52.54
2023-05-19T09:04:57.157Z,53.18
2023-05-19T09:07:23.823Z,51.74
2023-05-19T09:09:50.465Z,51.38
2023-05-19T09:12:17.027Z,51.84
2023-05-19T09:14:43.559Z,50.42
2023-05-19T09:17:10.261Z,49.41
2023-05-19T09:19:36.903Z,49.48
2023-05-19T09:22:03.615Z,49.17
2023-05-19T09:24:30.340Z,49.85
2023-05-19T09:26:57.946Z,48.28
2023-05-19T09:29:26.337Z,47.62
2023-05-19T09:31:54.411Z,46.71
2023-05-19T09:34:21.668Z,46.91
2023-05-19T09:36:48.370Z,45.34
2023-05-19T09:39:19.101Z,45.64
2023-05-19T09:41:45.962Z,46.67
2023-05-19T09:44:25.462Z,46.26
2023-05-19T09:46:52.463Z,46.47
2023-05-19T09:49:31.593Z,45.77
2023-05-19T09:51:59.313Z,45.45
2023-05-19T09:54:26.141Z,45.10
2023-05-19T09:56:59.130Z,45.21
2023-05-19T09:59:26.078Z,44.00
2023-05-19T10:01:54.655Z,43.90
2023-05-19T10:04:21.381Z,44.29
2023-05-19T10:06:49.772Z,42.78
2023-05-19T10:09:16.388Z,43.24
2023-05-19T10:11:42.953Z,43.44
2023-05-19T10:14:09.608Z,42.62
2023-05-19T10:16:36.205Z,42.83
2023-05-19T10:19:02.846Z,41.66
2023-05-19T10:21:29.513Z,41.08
2023-05-19T10:23:56.092Z,42.20
2023-05-19T10:26:22.615Z,41.57
2023-05-19T10:28:49.248Z,41.20
2023-05-19T10:31:17.157Z,41.12
2023-05-19T10:34:09.186Z,41.23
2023-05-19T10:36:47.710Z,41.60
2023-05-19T10:39:28.303Z,41.30
2023-05-19T10:42:15.887Z,40.12
2023-05-19T10:44:48.867Z,40.64
2023-05-19T10:47:15.574Z,40.47
2023-05-19T10:49:42.394Z,40.61
2023-05-19T10:52:24.391Z,39.18
2023-05-19T10:54:50.990Z,38.54
2023-05-19T10:57:17.996Z,40.05
2023-05-19T10:59:44.610Z,39.67
2023-05-19T11:02:11.394Z,38.92
2023-05-19T11:04:51.942Z,38.49
2023-05-19T11:07:18.971Z,37.10
2023-05-19T11:09:49.056Z,38.66
2023-05-19T11:12:15.614Z,38.81
2023-05-19T11:14:42.184Z,38.80
2023-05-19T11:17:08.762Z,38.89
2023-05-19T11:19:35.513Z,39.34
2023-05-19T11:22:08.669Z,37.33
2023-05-19T11:24:47.798Z,37.26
2023-05-19T11:27:23.264Z,36.91
2023-05-19T11:29:49.959Z,37.84
2023-05-19T11:32:16.662Z,36.87
2023-05-19T11:34:44.305Z,37.50
2023-05-19T11:37:10.904Z,38.83
2023-05-19T11:39:37.559Z,38.67
2023-05-19T11:42:04.371Z,38.31
2023-05-19T11:44:32.110Z,37.47
2023-05-19T11:46:59.273Z,37.77
2023-05-19T11:49:25.897Z,37.13
2023-05-19T11:51:52.471Z,36.14
2023-05-19T11:54:19.013Z,36.65
2023-05-19T11:56:45.598Z,35.83
2023-05-19T11:59:12.194Z,36.82
2023-05-19T12:01:38.773Z,37.42
2023-05-19T12:04:08.633Z,39.13
2023-05-19T12:06:35.230Z,39.83
2023-05-19T12:09:01.905Z,41.35
2023-05-19T12:11:28.716Z,41.68
2023-05-19T12:14:01.722Z,42.51
2023-05-19T12:16:35.054Z,42.08
2023-05-19T12:19:02.170Z,42.03
2023-05-19T12:21:33.799Z,42.71
2023-05-19T12:24:01.074Z,41.91
2023-05-19T12:26:27.769Z,42.13
2023-05-19T12:28:54.958Z,41.64
2023-05-19T12:31:21.558Z,41.08
2023-05-19T12:33:51.336Z,40.08
2023-05-19T12:36:18.481Z,39.31
2023-05-19T12:38:45.214Z,39.58
2023-05-19T12:41:12.156Z,38.78
2023-05-19T12:43:39.709Z,39.41
2023-05-19T12:46:10.485Z,40.14
2023-05-19T12:48:41.205Z,40.54
2023-05-19T12:51:07.778Z,40.44
2023-05-19T12:53:34.387Z,39.61
2023-05-19T12:56:00.957Z,40.05
2023-05-19T12:58:27.559Z,40.99
2023-05-19T13:00:58.789Z,39.89
2023-05-19T13:03:25.447Z,38.52
2023-05-19T13:05:52.095Z,38.03
2023-05-19T13:08:22.018Z,38.57
2023-05-19T13:10:48.707Z,38.83
2023-05-19T13:13:15.428Z,39.95
2023-05-19T13:15:44.276Z,39.86
2023-05-19T13:18:12.238Z,38.52
2023-05-19T13:20:39.502Z,37.12
2023-05-19T13:23:06.154Z,36.76
2023-05-19T13:25:35.868Z,36.36
2023-05-19T13:28:02.889Z,35.83
2023-05-19T13:30:29.467Z,35.04
2023-05-19T13:32:56.155Z,34.62
2023-05-19T13:35:22.887Z,34.21
2023-05-19T13:37:49.637Z,34.24
2023-05-19T13:40:16.375Z,34.78
2023-05-19T13:42:42.993Z,33.84
2023-05-19T13:45:09.824Z,34.73
2023-05-19T13:47:36.463Z,35.92
2023-05-19T13:50:03.936Z,38.25
2023-05-19T13:52:30.670Z,37.92
2023-05-19T13:54:57.276Z,38.63
2023-05-19T13:57:24.106Z,38.88
2023-05-19T14:00:01.692Z,40.07
2023-05-19T14:02:29.739Z,38.01
2023-05-19T14:04:56.632Z,34.83
2023-05-19T14:07:23.231Z,32.71
2023-05-19T14:09:49.873Z,30.05
2023-05-19T14:12:16.511Z,28.02
2023-05-19T14:14:43.143Z,27.14
2023-05-19T14:17:09.751Z,28.98
2023-05-19T14:19:36.345Z,31.73
2023-05-19T14:22:03.068Z,32.92
2023-05-19T14:24:29.677Z,32.52
2023-05-19T14:26:56.267Z,28.10
2023-05-19T14:29:22.829Z,26.34
2023-05-19T14:31:49.484Z,25.69
2023-05-19T14:34:16.169Z,28.90
2023-05-19T14:36:42.770Z,32.11
2023-05-19T14:39:09.346Z,33.19
2023-05-19T14:41:35.974Z,30.16
2023-05-19T14:44:02.579Z,30.96
2023-05-19T14:46:29.194Z,29.26
2023-05-19T14:48:55.843Z,26.34
2023-05-19T14:51:22.442Z,28.70
2023-05-19T14:53:49.015Z,32.47
2023-05-19T14:56:15.558Z,34.36
2023-05-19T14:58:42.132Z,33.03
2023-05-19T15:01:08.766Z,35.28
2023-05-19T15:03:35.401Z,36.82
2023-05-19T15:06:01.978Z,37.36
2023-05-19T15:08:28.578Z,38.46
2023-05-19T15:10:55.112Z,39.58
2023-05-19T15:13:21.744Z,40.20
2023-05-19T15:15:58.907Z,40.76
2023-05-19T15:18:31.558Z,40.53
2023-05-19T15:20:58.157Z,41.06
2023-05-19T15:23:24.684Z,40.87
2023-05-19T15:25:51.266Z,41.03
2023-05-19T15:28:17.894Z,42.05
2023-05-19T15:30:44.483Z,42.52
2023-05-19T15:33:11.869Z,43.12
2023-05-19T15:35:38.871Z,43.74
2023-05-19T15:38:05.576Z,44.11
2023-05-19T15:40:33.142Z,45.12
2023-05-19T15:42:59.965Z,44.92
2023-05-19T15:45:26.645Z,44.97
2023-05-19T15:47:53.265Z,44.61
2023-05-19T15:50:22.940Z,44.42
2023-05-19T15:52:49.602Z,44.25
2023-05-19T15:55:19.195Z,42.41
2023-05-19T15:57:45.822Z,41.09
2023-05-19T16:00:12.879Z,41.04
2023-05-19T16:02:39.590Z,41.03
2023-05-19T16:05:06.422Z,40.07
2023-05-19T16:07:33.003Z,40.06
2023-05-19T16:09:59.603Z,39.26
2023-05-19T16:12:26.198Z,38.42
2023-05-19T16:14:52.798Z,38.53
2023-05-19T16:17:19.416Z,40.38
2023-05-19T16:19:45.964Z,41.93
2023-05-19T16:22:12.653Z,43.88
2023-05-19T16:24:39.291Z,44.56
2023-05-19T16:27:05.854Z,44.99
2023-05-19T16:29:32.403Z,45.83
2023-05-19T16:31:58.986Z,46.03
2023-05-19T16:34:25.676Z,46.47
2023-05-19T16:36:52.278Z,46.68
2023-05-19T16:39:18.881Z,46.75
2023-05-19T16:41:45.483Z,45.84
2023-05-19T16:44:12.072Z,46.53
2023-05-19T16:46:38.777Z,47.05
2023-05-19T16:49:06.001Z,47.15
2023-05-19T16:51:32.580Z,47.19
2023-05-19T16:53:59.154Z,47.57
2023-05-19T16:56:25.750Z,47.91
2023-05-19T16:58:52.493Z,47.86
2023-05-19T17:01:19.182Z,48.28
2023-05-19T17:03:45.840Z,48.68
2023-05-19T17:06:12.507Z,49.14
2023-05-19T17:08:39.124Z,49.11
2023-05-19T17:11:05.820Z,49.75
2023-05-19T17:13:32.480Z,49.66
2023-05-19T17:15:59.415Z,50.13
2023-05-19T17:18:25.989Z,49.84
2023-05-19T17:20:52.594Z,50.45
2023-05-19T17:23:19.229Z,50.55
2023-05-19T17:25:46.120Z,50.44
2023-05-19T17:28:12.769Z,50.84
2023-05-19T17:30:39.898Z,50.74
2023-05-19T17:33:06.830Z,51.03
2023-05-19T17:35:33.632Z,51.05
2023-05-19T17:38:00.249Z,51.06
2023-05-19T17:40:27.010Z,51.20
2023-05-19T17:42:53.762Z,51.48
2023-05-19T17:45:20.370Z,51.75
2023-05-19T17:47:47.012Z,51.83
2023-05-19T17:50:13.723Z,52.35
2023-05-19T17:52:40.568Z,52.96
2023-05-19T17:55:07.946Z,53.06
2023-05-19T17:57:34.523Z,53.17
2023-05-19T18:00:01.350Z,53.83
2023-05-19T18:02:28.127Z,53.72
2023-05-19T18:04:55.188Z,54.29
2023-05-19T18:07:21.791Z,54.31
2023-05-19T18:09:48.540Z,54.66
2023-05-19T18:12:15.200Z,55.15
2023-05-19T18:14:41.724Z,55.23
2023-05-19T18:17:08.304Z,55.65
2023-05-19T18:19:34.887Z,55.44
2023-05-19T18:22:01.469Z,55.45
2023-05-19T18:24:28.111Z,56.06
2023-05-19T18:26:54.767Z,55.02
2023-05-19T18:29:21.364Z,55.42
2023-05-19T18:31:47.951Z,55.37
2023-05-19T18:34:14.540Z,56.06
2023-05-19T18:36:41.307Z,56.21
2023-05-19T18:39:07.920Z,56.59
2023-05-19T18:41:34.510Z,55.54
2023-05-19T18:44:01.314Z,55.83
2023-05-19T18:46:28.025Z,55.28
2023-05-19T18:48:54.653Z,55.53
2023-05-19T18:51:21.222Z,55.47
2023-05-19T18:53:47.813Z,55.55
2023-05-19T18:56:14.387Z,55.28
2023-05-19T18:58:41.094Z,55.82
2023-05-19T19:01:07.695Z,56.01
2023-05-19T19:03:34.387Z,56.06
2023-05-19T19:06:01.130Z,56.46
2023-05-19T19:08:27.736Z,56.19
2023-05-19T19:10:54.309Z,56.00
2023-05-19T19:13:20.998Z,56.07
2023-05-19T19:15:47.600Z,56.12
2023-05-19T19:18:14.947Z,56.57
2023-05-19T19:20:41.642Z,55.94
2023-05-19T19:23:08.289Z,56.01
2023-05-19T19:25:34.989Z,56.65
2023-05-19T19:28:01.608Z,57.04
2023-05-19T19:30:28.832Z,57.13
2023-05-19T19:32:55.490Z,57.28
2023-05-19T19:35:22.209Z,57.27
2023-05-19T19:37:48.790Z,57.56
2023-05-19T19:40:15.390Z,57.77
2023-05-19T19:42:41.967Z,58.18
2023-05-19T19:45:09.047Z,57.60
2023-05-19T19:47:35.622Z,57.83
2023-05-19T19:50:02.233Z,58.20
2023-05-19T19:52:28.831Z,58.45
2023-05-19T19:54:55.377Z,58.71
2023-05-19T19:57:22.012Z,58.24
2023-05-19T19:59:48.617Z,58.70
2023-05-19T22:01:03.259Z,54.18
2023-05-19T22:03:30.054Z,54.07
2023-05-19T22:05:56.721Z,54.38
2023-05-19T22:08:23.295Z,53.57
2023-05-19T22:10:49.990Z,53.71
2023-05-19T22:13:16.586Z,54.27
2023-05-19T22:15:43.152Z,54.48
2023-05-19T22:18:09.744Z,54.57
2023-05-19T22:20:36.310Z,54.63
2023-05-19T22:23:02.906Z,54.11
2023-05-19T22:25:29.738Z,54.82
2023-05-19T22:27:56.363Z,54.17
2023-05-19T22:30:23.163Z,54.28
2023-05-19T22:32:49.821Z,54.17
2023-05-19T22:35:16.418Z,54.57
2023-05-19T22:37:42.962Z,54.72
2023-05-19T22:40:09.746Z,54.74
2023-05-19T22:42:36.284Z,54.73
2023-05-19T22:45:02.884Z,54.24
2023-05-19T22:47:29.517Z,54.45
2023-05-19T22:49:57.155Z,54.18
2023-05-19T22:52:23.936Z,54.09
2023-05-19T22:54:50.444Z,54.16
2023-05-19T22:57:17.093Z,54.42
2023-05-19T22:59:43.648Z,54.60
2023-05-19T23:02:10.220Z,54.60
2023-05-19T23:04:36.903Z,53.95
2023-05-19T23:07:03.551Z,54.18
2023-05-19T23:09:30.136Z,53.73
2023-05-19T23:11:56.722Z,54.02
2023-05-19T23:14:23.273Z,54.46
2023-05-19T23:16:49.959Z,54.37
2023-05-19T23:19:16.549Z,54.48
2023-05-19T23:21:43.171Z,53.72
2023-05-19T23:24:09.783Z,53.63
2023-05-19T23:26:36.337Z,54.40
2023-05-19T23:29:02.946Z,54.50
2023-05-19T23:31:29.599Z,54.64
2023-05-19T23:33:56.241Z,54.33
2023-05-19T23:36:22.795Z,54.85
2023-05-19T23:38:49.377Z,55.02
2023-05-19T23:41:15.956Z,54.97
2023-05-19T23:43:42.480Z,54.60
2023-05-19T23:46:09.188Z,55.37
2023-05-19T23:48:35.843Z,55.63
2023-05-19T23:51:02.423Z,55.74
2023-05-19T23:53:28.955Z,55.63
2023-05-19T23:55:56.459Z,55.90
2023-05-19T23:58:23.782Z,56.51
